Time;durP1;ratioP1;P1;durP2;ratioP2;P2;SDS_P1;SDS_P2;PMS_P1;PMS_P2;Temp;Humidity;BMP_temperature;BMP_pressure;BME280_temperature;BME280_humidity;BME280_pressure;Samples;Min_cycle;Max_cycle;Signal;HPM_P1;HPM_P2
2022/03/28 00:01:23;;;;;;;20.80;13.10;;;;;;;9.99;58.10;102588.03;5058181;28;20491;-62
2022/03/28 00:03:48;;;;;;;20.83;13.43;;;;;;;9.89;58.61;102583.94;5058870;28;20030;-61
2022/03/28 00:06:14;;;;;;;22.65;13.45;;;;;;;9.82;58.68;102593.03;5092300;28;20028;-61
2022/03/28 00:08:40;;;;;;;20.38;13.30;;;;;;;9.83;59.03;102589.47;5067098;28;20383;-61
2022/03/28 00:11:08;;;;;;;25.38;14.32;;;;;;;9.82;59.12;102590.38;5093590;28;20080;-61
2022/03/28 00:13:35;;;;;;;26.85;14.15;;;;;;;9.76;59.36;102579.03;5096480;28;20023;-61
2022/03/28 00:16:02;;;;;;;24.88;14.55;;;;;;;9.71;59.41;102575.66;5091608;28;20497;-61
2022/03/28 00:18:28;;;;;;;23.65;14.35;;;;;;;9.70;59.57;102568.56;5099209;28;20024;-61
2022/03/28 00:20:54;;;;;;;26.13;14.90;;;;;;;9.66;59.57;102561.63;5095395;28;20024;-61
2022/03/28 00:23:20;;;;;;;21.77;14.32;;;;;;;9.62;59.79;102564.41;5086718;28;20467;-61
2022/03/28 00:25:46;;;;;;;22.92;14.63;;;;;;;9.49;59.89;102564.81;5108343;28;20020;-61
2022/03/28 00:28:12;;;;;;;23.17;14.23;;;;;;;9.53;59.59;102565.59;5092035;28;20047;-61
2022/03/28 00:30:48;;;;;;;26.15;14.15;;;;;;;9.48;59.76;102557.75;5091510;28;20079;-61
2022/03/28 00:33:14;;;;;;;25.98;14.63;;;;;;;9.39;60.31;102552.75;5101347;28;20105;-61
2022/03/28 00:35:42;;;;;;;25.80;15.07;;;;;;;9.41;60.47;102550.91;5101449;28;20491;-61
2022/03/28 00:38:08;;;;;;;24.67;15.02;;;;;;;9.44;60.45;102549.94;5090947;28;20027;-61
2022/03/28 00:40:34;;;;;;;28.83;15.50;;;;;;;9.38;60.77;102545.66;5096074;28;20436;-61
2022/03/28 00:43:03;;;;;;;27.13;15.13;;;;;;;9.38;60.85;102539.50;5089733;28;20061;-61
2022/03/28 00:45:33;;;;;;;23.23;14.77;;;;;;;9.34;60.64;102536.06;5102098;28;20024;-61
2022/03/28 00:48:02;;;;;;;23.05;14.48;;;;;;;9.33;60.72;102535.22;5092820;28;20395;-61
2022/03/28 00:50:28;;;;;;;24.88;14.10;;;;;;;9.34;61.07;102533.41;5097442;28;20106;-61
2022/03/28 00:52:54;;;;;;;25.38;14.82;;;;;;;9.34;60.78;102533.41;5077814;28;20110;-61
2022/03/28 00:55:20;;;;;;;26.95;14.48;;;;;;;9.18;60.75;102527.72;5079021;28;20032;-61
2022/03/28 00:57:46;;;;;;;27.13;14.13;;;;;;;9.22;60.97;102539.97;5084350;28;20039;-61
2022/03/28 01:00:14;;;;;;;28.77;14.93;;;;;;;9.20;61.35;102533.81;5079395;28;20028;-61
2022/03/28 01:02:39;;;;;;;24.63;15.18;;;;;;;9.05;61.47;102521.03;5105995;28;20081;-61
2022/03/28 01:05:06;;;;;;;24.65;14.15;;;;;;;9.11;61.60;102520.84;5106182;28;20028;-61
2022/03/28 01:07:32;;;;;;;27.85;15.27;;;;;;;9.09;61.45;102515.59;5083984;28;20082;-61
2022/03/28 01:10:00;;;;;;;25.27;14.57;;;;;;;9.07;61.22;102514.75;5102930;28;20024;-61
2022/03/28 01:12:27;;;;;;;25.80;14.45;;;;;;;9.02;61.20;102514.00;5074755;28;20036;-61
2022/03/28 01:14:54;;;;;;;24.65;14.52;;;;;;;9.00;61.49;102512.31;5096790;28;20475;-61
2022/03/28 01:20:06;;;;;;;25.50;15.07;;;;;;;8.89;61.73;102506.47;5102580;28;20046;-61
2022/03/28 01:22:31;;;;;;;27.77;15.18;;;;;;;8.82;61.84;102501.34;5091045;28;20031;-61
2022/03/28 01:25:05;;;;;;;25.27;14.20;;;;;;;8.81;61.76;102494.28;5107899;28;20020;-61
2022/03/28 01:27:36;;;;;;;31.33;15.07;;;;;;;8.80;62.15;102497.00;5092294;28;20119;-61
2022/03/28 01:30:04;;;;;;;30.48;15.23;;;;;;;8.77;62.06;102494.44;5107899;28;20126;-61
2022/03/28 01:32:32;;;;;;;23.42;13.93;;;;;;;8.70;62.24;102493.72;5096909;28;20027;-61
2022/03/28 01:34:57;;;;;;;24.17;14.32;;;;;;;8.58;62.59;102489.66;5110230;28;20058;-61
2022/03/28 01:37:23;;;;;;;33.45;15.25;;;;;;;8.59;62.47;102486.09;5110204;28;20036;-61
2022/03/28 01:39:48;;;;;;;28.38;15.45;;;;;;;8.69;62.43;102483.19;5083661;28;20091;-61
2022/03/28 01:42:14;;;;;;;29.52;14.38;;;;;;;8.50;62.80;102477.50;5088528;28;20027;-61
2022/03/28 01:44:40;;;;;;;23.15;14.18;;;;;;;8.52;63.05;102483.66;5095150;28;20155;-61
2022/03/28 01:47:06;;;;;;;31.27;16.10;;;;;;;8.52;62.56;102479.22;5082697;28;20104;-61
2022/03/28 01:49:34;;;;;;;26.33;13.95;;;;;;;8.51;62.70;102481.94;5101998;28;20084;-61
2022/03/28 01:52:00;;;;;;;26.60;14.27;;;;;;;8.44;62.97;102477.69;5076210;28;20076;-61
2022/03/28 01:54:25;;;;;;;28.98;13.93;;;;;;;8.36;63.32;102481.41;5084440;28;20024;-61
2022/03/28 01:56:51;;;;;;;23.75;14.35;;;;;;;8.26;64.02;102481.69;5091794;28;20024;-61
2022/03/28 01:59:19;;;;;;;24.25;14.23;;;;;;;8.25;63.73;102482.59;5073601;28;20039;-61
2022/03/28 02:01:44;;;;;;;25.90;14.48;;;;;;;8.23;63.80;102471.16;5080404;28;20036;-61
2022/03/28 02:04:13;;;;;;;22.63;13.52;;;;;;;8.30;63.58;102473.63;5110027;28;20402;-61
2022/03/28 02:06:38;;;;;;;26.98;14.00;;;;;;;8.26;63.51;102463.13;5089586;28;20497;-61
2022/03/28 02:09:03;;;;;;;29.33;14.18;;;;;;;8.30;63.40;102462.16;5058384;28;20068;-61
2022/03/28 02:11:29;;;;;;;28.88;14.68;;;;;;;8.09;63.40;102475.06;5082392;28;20064;-61
2022/03/28 02:13:55;;;;;;;23.70;13.95;;;;;;;7.98;63.63;102469.19;5064866;28;20032;-61
2022/03/28 02:16:25;;;;;;;26.52;14.45;;;;;;;7.88;64.54;102465.91;5069051;28;20034;-61
2022/03/28 02:18:53;;;;;;;27.17;13.90;;;;;;;7.84;64.67;102463.34;5079302;28;20032;-61
2022/03/28 02:21:19;;;;;;;27.00;14.38;;;;;;;7.82;64.42;102466.03;5078261;28;20046;-62
2022/03/28 02:23:47;;;;;;;26.30;14.13;;;;;;;7.77;64.72;102451.19;5113030;28;20035;-61
2022/03/28 02:26:14;;;;;;;24.23;13.93;;;;;;;7.82;64.83;102441.31;5079862;28;20028;-61
2022/03/28 02:28:40;;;;;;;26.35;13.60;;;;;;;7.71;65.01;102444.28;5094056;28;20035;-61
2022/03/28 02:31:05;;;;;;;24.95;13.38;;;;;;;7.77;64.54;102444.13;5100384;28;20036;-61
2022/03/28 02:33:30;;;;;;;24.02;13.15;;;;;;;7.76;64.53;102446.78;5113613;28;20107;-61
2022/03/28 02:35:56;;;;;;;23.92;13.18;;;;;;;7.83;64.42;102443.97;5094846;28;20114;-61
2022/03/28 02:38:21;;;;;;;25.10;13.10;;;;;;;7.81;64.18;102444.91;5090918;28;20028;-61
2022/03/28 02:40:47;;;;;;;24.88;13.57;;;;;;;7.77;64.48;102437.94;5081302;28;20520;-61
2022/03/28 02:43:15;;;;;;;22.48;14.05;;;;;;;7.68;65.47;102425.81;5095380;28;20073;-61
2022/03/28 02:45:40;;;;;;;25.10;13.45;;;;;;;7.68;64.61;102428.47;5108988;28;20406;-61
2022/03/28 02:48:06;;;;;;;25.88;13.82;;;;;;;7.64;65.00;102430.28;5113548;28;20027;-61
2022/03/28 02:50:33;;;;;;;25.95;13.20;;;;;;;7.64;64.59;102421.50;5086847;28;20035;-62
2022/03/28 02:52:59;;;;;;;22.95;13.63;;;;;;;7.47;64.98;102421.91;5112039;28;20019;-62
2022/03/28 02:55:26;;;;;;;24.50;14.02;;;;;;;7.34;65.62;102421.34;5100338;28;20040;-62
2022/03/28 02:57:52;;;;;;;24.55;13.45;;;;;;;7.42;65.37;102423.81;5098924;28;20518;-61
2022/03/28 03:00:17;;;;;;;26.10;13.23;;;;;;;7.50;65.21;102420.06;5087809;28;20028;-61
2022/03/28 03:02:44;;;;;;;26.92;13.07;;;;;;;7.34;66.43;102416.06;5084658;28;20403;-62
2022/03/28 03:05:11;;;;;;;26.98;14.52;;;;;;;7.49;65.82;102410.38;5103264;28;20023;-61
2022/03/28 03:07:37;;;;;;;30.30;13.88;;;;;;;7.48;65.62;102405.13;5093338;28;20015;-61
2022/03/28 03:10:07;;;;;;;20.70;13.05;;;;;;;7.58;65.84;102411.06;5081713;28;20092;-61
2022/03/28 03:12:32;;;;;;;26.00;13.80;;;;;;;7.45;65.63;102421.09;5089585;28;20500;-62
2022/03/28 03:14:58;;;;;;;26.30;13.82;;;;;;;7.39;66.36;102406.22;5108127;28;20063;-61
2022/03/28 03:17:24;;;;;;;27.23;14.10;;;;;;;7.27;66.49;102407.41;5095714;28;20035;-61
2022/03/28 03:19:50;;;;;;;29.75;13.60;;;;;;;7.37;66.36;102404.53;5105378;28;20439;-61
2022/03/28 03:22:16;;;;;;;28.45;13.68;;;;;;;7.32;66.28;102404.63;5104021;28;20027;-61
2022/03/28 03:24:46;;;;;;;25.42;13.35;;;;;;;7.35;66.17;102399.25;5098802;28;20226;-61
2022/03/28 03:27:12;;;;;;;33.40;13.02;;;;;;;7.21;66.50;102410.19;5093297;28;20120;-61
2022/03/28 03:29:38;;;;;;;25.27;13.20;;;;;;;7.21;66.68;102410.19;5093102;28;20552;-61
2022/03/28 03:32:07;;;;;;;27.05;13.50;;;;;;;7.24;66.74;102401.31;5099047;28;20032;-61
2022/03/28 03:34:34;;;;;;;29.95;14.32;;;;;;;7.15;66.34;102399.75;5089199;28;20038;-61
2022/03/28 03:37:00;;;;;;;24.98;13.20;;;;;;;7.11;67.13;102386.63;5111964;28;20062;-61
2022/03/28 03:39:28;;;;;;;32.75;13.07;;;;;;;7.24;66.32;102393.38;5112472;28;20023;-61
2022/03/28 03:41:55;;;;;;;23.98;13.68;;;;;;;7.14;66.61;102390.06;5112813;28;20172;-61
2022/03/28 03:44:20;;;;;;;25.15;13.43;;;;;;;7.12;66.53;102388.34;5101644;28;20053;-61
2022/03/28 03:46:47;;;;;;;25.98;14.35;;;;;;;7.19;66.59;102392.59;5097857;28;20412;-61
2022/03/28 03:49:17;;;;;;;25.70;13.30;;;;;;;6.94;67.11;102379.06;5112155;28;20027;-61
2022/03/28 03:51:43;;;;;;;24.90;14.07;;;;;;;7.00;66.67;102384.22;5072412;28;20121;-61
2022/03/28 03:54:09;;;;;;;29.55;13.63;;;;;;;6.98;67.17;102380.75;5092616;28;20431;-61
2022/03/28 03:56:34;;;;;;;26.65;14.77;;;;;;;6.94;66.81;102376.44;5094616;28;20024;-61
2022/03/28 03:59:00;;;;;;;27.63;13.75;;;;;;;7.00;67.16;102365.69;5061039;28;20036;-61
2022/03/28 04:01:28;;;;;;;20.60;12.82;;;;;;;6.85;67.29;102364.28;5075226;28;20035;-61
2022/03/28 04:03:54;;;;;;;24.75;14.45;;;;;;;6.93;66.40;102365.00;5111735;28;20024;-61
2022/03/28 04:06:19;;;;;;;27.80;14.02;;;;;;;6.95;67.13;102376.41;5080835;28;20084;-61
2022/03/28 04:08:45;;;;;;;26.63;12.73;;;;;;;6.86;67.30;102375.75;5092785;28;20042;-61
2022/03/28 04:11:11;;;;;;;27.75;13.45;;;;;;;6.92;67.54;102367.69;5064888;28;20027;-61
2022/03/28 04:13:36;;;;;;;27.15;13.63;;;;;;;6.90;67.30;102365.06;5089952;28;20429;-61
2022/03/28 04:16:02;;;;;;;26.10;13.45;;;;;;;6.77;68.42;102353.91;5100670;28;20023;-61
2022/03/28 04:18:28;;;;;;;21.45;13.02;;;;;;;6.73;68.40;102348.72;5098943;28;20475;-61
2022/03/28 04:20:54;;;;;;;27.48;14.35;;;;;;;6.70;67.44;102351.44;5100239;28;20076;-61
2022/03/28 04:23:21;;;;;;;25.35;13.18;;;;;;;6.66;67.65;102358.56;5087768;28;20081;-61
2022/03/28 04:25:49;;;;;;;25.08;13.20;;;;;;;6.69;68.26;102358.50;5091610;28;20028;-61
2022/03/28 04:28:17;;;;;;;31.10;13.40;;;;;;;6.72;67.81;102355.78;5091659;28;20035;-61
2022/03/28 04:30:42;;;;;;;27.98;12.98;;;;;;;6.59;68.53;102349.91;5103119;28;20047;-61
2022/03/28 04:33:09;;;;;;;24.77;13.57;;;;;;;6.70;67.87;102367.28;5097890;28;20051;-61
2022/03/28 04:35:39;;;;;;;30.73;13.95;;;;;;;6.58;67.81;102365.78;5073891;28;20032;-61
2022/03/28 04:38:06;;;;;;;28.45;13.52;;;;;;;6.45;68.39;102365.19;5093951;28;20064;-61
2022/03/28 04:40:35;;;;;;;27.55;13.77;;;;;;;6.48;68.20;102353.69;5106465;28;20047;-61
2022/03/28 04:43:00;;;;;;;27.55;14.10;;;;;;;6.47;68.81;102358.09;5080431;28;20077;-61
2022/03/28 04:45:30;;;;;;;27.17;13.57;;;;;;;6.42;69.10;102356.47;5091888;28;20115;-61
2022/03/28 04:47:56;;;;;;;31.92;14.45;;;;;;;6.49;68.55;102361.56;5091330;28;20471;-61
2022/03/28 04:50:22;;;;;;;28.52;14.20;;;;;;;6.24;69.44;102355.09;5074006;28;20096;-61
2022/03/28 04:52:47;;;;;;;31.05;14.13;;;;;;;6.32;69.44;102359.31;5087282;28;20482;-61
2022/03/28 04:55:13;;;;;;;25.23;13.77;;;;;;;6.40;69.25;102360.91;5075767;28;20545;-61
2022/03/28 04:57:39;;;;;;;27.40;13.82;;;;;;;6.47;68.97;102359.84;5110892;28;20118;-61
2022/03/28 05:00:07;;;;;;;26.23;13.27;;;;;;;6.37;68.69;102362.69;5111177;28;20401;-61
2022/03/28 05:02:34;;;;;;;30.08;14.52;;;;;;;6.37;68.86;102364.47;5111273;28;20588;-61
2022/03/28 05:04:59;;;;;;;23.85;13.63;;;;;;;6.44;68.96;102365.22;5102828;28;20027;-61
2022/03/28 05:07:27;;;;;;;29.42;13.50;;;;;;;6.45;68.62;102365.19;5108056;28;20015;-61
2022/03/28 05:09:54;;;;;;;35.58;14.10;;;;;;;6.44;68.92;102367.84;5092717;28;20020;-61
2022/03/28 05:12:23;;;;;;;24.92;12.80;;;;;;;6.46;68.88;102358.13;5075255;28;20031;-61
2022/03/28 05:14:50;;;;;;;29.80;14.25;;;;;;;6.45;68.32;102359.91;5094269;28;20024;-61
2022/03/28 05:17:23;;;;;;;29.90;14.57;;;;;;;6.45;68.71;102359.03;5073370;28;20019;-61
2022/03/28 05:19:49;;;;;;;30.92;13.35;;;;;;;6.41;68.06;102357.34;5098064;28;20035;-61
2022/03/28 05:22:15;;;;;;;32.08;13.73;;;;;;;6.36;68.65;102355.69;5105692;28;20380;-61
2022/03/28 05:24:41;;;;;;;31.77;13.60;;;;;;;6.37;69.00;102357.41;5093282;28;20450;-61
2022/03/28 05:27:09;;;;;;;26.38;13.38;;;;;;;6.36;68.44;102357.47;5072650;28;20110;-61
2022/03/28 05:29:37;;;;;;;27.13;13.93;;;;;;;6.35;69.22;102355.69;5093948;28;20058;-61
2022/03/28 05:32:05;;;;;;;26.20;13.38;;;;;;;6.33;68.57;102360.16;5105277;28;20038;-61
2022/03/28 05:34:31;;;;;;;23.63;13.00;;;;;;;6.26;68.69;102354.13;5080635;28;20363;-61
2022/03/28 05:37:10;;;;;;;32.78;12.73;;;;;;;6.30;69.35;102355.81;5089872;28;20032;-61
2022/03/28 05:39:36;;;;;;;22.10;13.02;;;;;;;6.29;69.46;102347.91;5059557;28;20069;-61
2022/03/28 05:42:04;;;;;;;33.75;14.35;;;;;;;6.22;69.27;102354.22;5087328;28;20331;-61
2022/03/28 05:44:33;;;;;;;23.48;12.88;;;;;;;6.18;68.90;102340.22;5097470;28;20027;-61
2022/03/28 05:46:58;;;;;;;29.52;13.65;;;;;;;6.20;69.23;102345.47;5095113;28;20024;-61
2022/03/28 05:49:24;;;;;;;24.60;13.35;;;;;;;6.28;68.98;102348.81;5076141;28;20039;-62
2022/03/28 05:51:51;;;;;;;23.58;12.77;;;;;;;6.28;69.68;102349.69;5080545;28;20020;-61
2022/03/28 05:54:17;;;;;;;31.65;13.57;;;;;;;6.30;69.70;102339.97;5079237;28;20081;-62
2022/03/28 05:56:43;;;;;;;23.38;12.25;;;;;;;6.12;70.46;102333.28;5093364;28;20019;-61
2022/03/28 05:59:11;;;;;;;31.38;12.85;;;;;;;6.23;69.77;102340.97;5114187;28;20071;-61
2022/03/28 06:01:38;;;;;;;26.40;13.48;;;;;;;6.20;70.15;102330.47;5111934;28;20023;-61
2022/03/28 06:04:04;;;;;;;26.80;13.52;;;;;;;6.19;70.50;102343.72;5099511;28;20023;-61
2022/03/28 06:06:33;;;;;;;31.33;14.38;;;;;;;6.16;70.70;102327.94;5096033;28;20035;-61
2022/03/28 06:08:59;;;;;;;31.10;14.95;;;;;;;6.24;70.58;102339.22;5083724;28;20096;-61
2022/03/28 06:11:25;;;;;;;30.98;13.70;;;;;;;6.19;71.21;102330.53;5061265;28;20032;-61
2022/03/28 06:13:54;;;;;;;26.02;13.73;;;;;;;6.14;71.70;102342.03;5061065;28;20103;-61
2022/03/28 06:16:23;;;;;;;31.98;14.50;;;;;;;6.21;71.68;102340.16;5100882;28;20046;-61
2022/03/28 06:18:49;;;;;;;26.80;12.38;;;;;;;6.31;71.57;102327.63;5083317;28;20023;-61
2022/03/28 06:21:14;;;;;;;36.05;13.73;;;;;;;6.32;71.81;102332.88;5088055;28;20397;-60
2022/03/28 06:23:40;;;;;;;30.73;13.85;;;;;;;6.39;72.35;102335.38;5075117;28;20463;-60
2022/03/28 06:26:05;;;;;;;36.83;13.48;;;;;;;6.36;72.51;102331.91;5064797;28;20027;-60
2022/03/28 06:28:34;;;;;;;26.88;13.43;;;;;;;6.39;72.92;102336.25;5090340;28;20051;-60
2022/03/28 06:31:01;;;;;;;34.83;13.98;;;;;;;6.47;73.50;102333.44;5112557;28;20044;-61
2022/03/28 06:33:26;;;;;;;30.88;13.18;;;;;;;6.53;73.15;102322.72;5075786;28;20032;-60
2022/03/28 06:35:56;;;;;;;32.05;13.23;;;;;;;6.53;73.72;102333.28;5084726;28;20036;-62
2022/03/28 06:38:22;;;;;;;29.77;13.05;;;;;;;6.65;74.05;102332.16;5095626;28;20138;-60
2022/03/28 06:40:48;;;;;;;36.15;13.77;;;;;;;6.76;74.67;102336.28;5112660;28;20024;-61
2022/03/28 06:43:14;;;;;;;41.65;13.80;;;;;;;6.72;75.24;102336.41;5112362;28;20035;-61
2022/03/28 06:45:40;;;;;;;40.92;14.63;;;;;;;6.93;74.98;102332.38;5108125;28;20390;-61
2022/03/28 06:48:06;;;;;;;35.80;13.73;;;;;;;6.98;75.33;102325.22;5092588;28;20019;-60
2022/03/28 06:50:34;;;;;;;33.80;14.15;;;;;;;7.09;74.82;102331.13;5078045;28;20042;-60
2022/03/28 06:53:02;;;;;;;33.28;15.68;;;;;;;7.12;74.52;102320.47;5093283;28;20061;-60
2022/03/28 06:55:31;;;;;;;38.77;15.53;;;;;;;7.30;74.71;102326.19;5108995;28;20020;-61
2022/03/28 06:57:56;;;;;;;37.55;15.55;;;;;;;7.40;74.39;102320.59;5080552;28;20023;-61
2022/03/28 07:00:24;;;;;;;49.92;16.70;;;;;;;7.53;74.19;102326.47;5082935;28;20024;-61
2022/03/28 07:02:50;;;;;;;45.85;15.60;;;;;;;7.58;74.63;102318.38;5084845;28;20028;-60
2022/03/28 07:05:18;;;;;;;39.47;15.25;;;;;;;7.63;74.81;102317.34;5103063;28;20094;-61
2022/03/28 07:07:44;;;;;;;39.97;15.13;;;;;;;7.69;74.70;102314.53;5079330;28;20116;-60
2022/03/28 07:10:11;;;;;;;38.20;15.52;;;;;;;7.86;74.11;102313.22;5093240;28;20086;-61
2022/03/28 07:12:37;;;;;;;41.47;15.63;;;;;;;7.97;73.92;102314.66;5104624;28;20110;-61
2022/03/28 07:15:04;;;;;;;38.05;16.15;;;;;;;8.12;73.64;102308.03;5076437;28;20107;-61
2022/03/28 07:17:30;;;;;;;36.00;15.88;;;;;;;8.31;73.00;102304.84;5092814;28;20055;-61
2022/03/28 07:19:55;;;;;;;41.00;16.35;;;;;;;8.45;72.50;102304.44;5097039;28;20454;-60
2022/03/28 07:22:21;;;;;;;41.75;15.85;;;;;;;8.56;72.13;102303.22;5096815;28;20523;-61
2022/03/28 07:24:46;;;;;;;45.88;16.27;;;;;;;8.69;71.73;102306.31;5083654;28;20028;-61
2022/03/28 07:27:14;;;;;;;36.58;16.20;;;;;;;8.85;71.47;102293.44;5093226;28;20020;-60
2022/03/28 07:29:43;;;;;;;42.25;18.38;;;;;;;8.95;71.02;102301.97;5077925;28;20039;-61
2022/03/28 07:32:09;;;;;;;39.40;16.83;;;;;;;8.99;70.92;102291.19;5094762;28;20027;-60
2022/03/28 07:34:35;;;;;;;42.33;18.48;;;;;;;9.18;70.46;102288.81;5102542;28;20296;-61
2022/03/28 07:37:03;;;;;;;36.22;16.38;;;;;;;9.24;70.29;102293.91;5083947;28;20042;-60
2022/03/28 07:39:34;;;;;;;36.20;16.70;;;;;;;9.27;70.66;102277.00;5085350;28;20027;-61
2022/03/28 07:42:00;;;;;;;41.45;18.27;;;;;;;9.44;69.84;102273.75;5110974;28;20015;-60
2022/03/28 07:44:26;;;;;;;46.88;17.73;;;;;;;9.64;69.46;102278.34;5111973;28;20085;-61
2022/03/28 07:46:51;;;;;;;36.85;17.42;;;;;;;9.73;69.15;102270.91;5074837;28;20023;-61
2022/03/28 07:49:17;;;;;;;44.85;19.00;;;;;;;9.93;69.42;102272.81;5078153;28;20036;-61
2022/03/28 07:51:43;;;;;;;40.00;18.20;;;;;;;9.94;68.51;102260.41;5076998;28;20023;-61
2022/03/28 07:54:11;;;;;;;39.30;18.00;;;;;;;10.06;68.38;102267.03;5108577;28;20425;-61
2022/03/28 07:56:38;;;;;;;33.95;17.35;;;;;;;10.16;68.29;102281.72;5092534;28;20034;-61
2022/03/28 07:59:04;;;;;;;46.60;19.92;;;;;;;10.23;67.06;102276.13;5077469;28;20487;-61
2022/03/28 08:01:30;;;;;;;45.28;19.60;;;;;;;10.35;66.79;102265.94;5112493;28;20031;-61
2022/03/28 08:03:56;;;;;;;39.42;19.13;;;;;;;10.53;65.94;102267.91;5106245;28;20024;-60
2022/03/28 08:06:21;;;;;;;41.70;18.42;;;;;;;10.61;65.74;102276.41;5081723;28;20038;-61
2022/03/28 08:08:48;;;;;;;40.85;19.98;;;;;;;10.66;65.39;102266.47;5094571;28;20024;-60
2022/03/28 08:11:15;;;;;;;35.88;19.45;;;;;;;10.80;65.16;102263.25;5084255;28;20077;-61
2022/03/28 08:13:41;;;;;;;39.95;20.88;;;;;;;10.96;65.63;102262.59;5074174;28;20032;-61
2022/03/28 08:16:08;;;;;;;42.03;22.52;;;;;;;11.11;64.20;102256.63;5094303;28;20027;-61
2022/03/28 08:18:37;;;;;;;37.47;21.13;;;;;;;11.27;63.75;102251.53;5096052;28;20016;-61
2022/03/28 08:21:03;;;;;;;37.67;20.10;;;;;;;11.45;63.13;102256.03;5058524;28;20031;-61
2022/03/28 08:23:29;;;;;;;42.05;21.17;;;;;;;11.47;62.46;102258.63;5112325;28;20054;-61
2022/03/28 08:25:55;;;;;;;47.25;22.08;;;;;;;11.45;62.53;102244.53;5090997;28;20015;-60
2022/03/28 08:28:21;;;;;;;40.15;19.10;;;;;;;11.63;63.00;102254.34;5084022;28;20032;-61
2022/03/28 08:30:47;;;;;;;45.50;20.38;;;;;;;11.76;62.38;102252.00;5091500;28;20376;-61
2022/03/28 08:33:12;;;;;;;43.42;20.45;;;;;;;11.94;61.95;102237.88;5073347;28;20032;-61
2022/03/28 08:35:38;;;;;;;42.42;21.35;;;;;;;12.15;60.86;102240.47;5073108;28;20038;-61
2022/03/28 08:38:04;;;;;;;40.00;21.23;;;;;;;12.28;61.01;102245.13;5092008;28;20016;-61
2022/03/28 08:40:30;;;;;;;40.20;20.48;;;;;;;12.50;60.15;102244.97;5092757;28;20118;-62
2022/03/28 08:42:56;;;;;;;37.35;20.65;;;;;;;12.65;59.96;102242.50;5093661;28;20085;-62
2022/03/28 08:45:22;;;;;;;38.92;21.42;;;;;;;12.72;58.55;102243.91;5111698;28;20031;-62
2022/03/28 08:47:49;;;;;;;40.33;20.55;;;;;;;12.86;58.93;102240.56;5093561;28;20038;-62
2022/03/28 08:50:15;;;;;;;36.60;20.85;;;;;;;12.87;59.28;102228.94;5093402;28;20085;-62
2022/03/28 08:52:42;;;;;;;37.88;19.33;;;;;;;13.21;57.93;102241.44;5111357;28;20098;-61
2022/03/28 08:55:11;;;;;;;37.25;20.17;;;;;;;13.09;57.52;102234.06;5098611;28;20430;-61
2022/03/28 08:57:37;;;;;;;38.95;20.77;;;;;;;13.29;58.57;102230.34;5076214;28;20016;-61
2022/03/28 09:00:07;;;;;;;37.72;21.17;;;;;;;13.30;57.95;102226.75;5103824;28;20039;-61
2022/03/28 09:02:49;;;;;;;43.60;20.60;;;;;;;13.56;57.55;102236.03;5102675;28;20051;-61
2022/03/28 09:05:27;;;;;;;42.50;20.30;;;;;;;13.68;56.30;102230.06;5084060;28;20026;-61
2022/03/28 09:07:55;;;;;;;42.00;21.30;;;;;;;13.73;56.19;102230.66;5095299;28;20379;-61
2022/03/28 09:10:21;;;;;;;37.08;20.85;;;;;;;13.84;56.71;102230.09;5075780;28;20016;-61
2022/03/28 09:13:00;;;;;;;43.17;20.52;;;;;;;14.10;57.83;102231.31;5091074;28;20017;-61
2022/03/28 09:15:26;;;;;;;37.60;22.48;;;;;;;14.14;56.19;102215.97;5072918;28;20123;-61
2022/03/28 09:17:56;;;;;;;43.58;22.45;;;;;;;14.25;56.61;102221.56;5108114;28;20027;-61
2022/03/28 09:20:22;;;;;;;42.00;22.27;;;;;;;14.39;55.65;102224.34;5105683;28;20032;-62
2022/03/28 09:22:49;;;;;;;40.38;23.75;;;;;;;14.58;54.63;102218.81;5098468;28;20085;-61
2022/03/28 09:25:16;;;;;;;47.25;24.50;;;;;;;14.67;54.30;102220.09;5097566;28;20140;-61
2022/03/28 09:27:44;;;;;;;45.58;25.88;;;;;;;14.65;53.62;102213.97;5094002;28;20494;-61
2022/03/28 09:30:16;;;;;;;50.45;26.65;;;;;;;14.73;54.46;102220.59;5117815;28;20390;-61
2022/03/28 09:32:52;;;;;;;48.08;26.50;;;;;;;14.95;54.77;102227.38;5114585;28;20106;-62
2022/03/28 09:35:20;;;;;;;42.83;26.10;;;;;;;15.04;52.98;102223.28;5115943;28;20035;-61
2022/03/28 09:37:58;;;;;;;43.17;26.45;;;;;;;15.24;53.68;102219.41;5091576;28;20490;-61
2022/03/28 09:40:26;;;;;;;40.08;24.90;;;;;;;15.38;51.95;102216.72;5094167;28;20074;-61
2022/03/28 09:42:52;;;;;;;42.70;23.63;;;;;;;15.52;52.23;102205.16;5081519;28;20050;-61
2022/03/28 09:45:23;;;;;;;41.20;24.42;;;;;;;15.54;52.75;102209.47;5079870;28;20032;-61
2022/03/28 09:48:15;;;;;;;43.50;23.02;;;;;;;15.70;52.72;102213.91;5104597;28;20031;-62
2022/03/28 09:50:43;;;;;;;41.25;23.70;;;;;;;15.76;51.43;102198.28;5097859;28;20479;-61
2022/03/28 09:53:25;;;;;;;49.25;24.25;;;;;;;15.93;52.79;102197.22;5097454;28;20028;-61
2022/03/28 09:56:02;;;;;;;36.65;23.63;;;;;;;16.24;51.94;102188.03;5117097;28;20072;-61
2022/03/28 09:58:31;;;;;;;39.10;22.58;;;;;;;16.31;50.64;102189.34;5086370;28;20027;-61
2022/03/28 10:00:56;;;;;;;37.10;23.53;;;;;;;16.48;49.69;102182.00;5106239;28;20028;-61
2022/03/28 10:03:23;;;;;;;39.25;23.88;;;;;;;16.70;49.99;102178.72;5105485;27;20060;-61
2022/03/28 10:05:49;;;;;;;39.83;22.15;;;;;;;16.91;48.73;102185.38;5110749;28;20476;-61
2022/03/28 10:08:18;;;;;;;40.58;22.85;;;;;;;16.87;49.56;102191.06;5091379;28;20020;-61
2022/03/28 10:10:44;;;;;;;37.72;24.85;;;;;;;17.00;47.77;102181.19;5106943;28;20023;-61
2022/03/28 10:13:09;;;;;;;44.90;26.13;;;;;;;17.11;48.36;102185.81;5098550;28;20035;-61
2022/03/28 10:15:36;;;;;;;36.58;25.40;;;;;;;17.15;46.85;102187.34;5082471;28;20127;-61
2022/03/28 10:18:03;;;;;;;45.50;27.98;;;;;;;17.21;46.43;102181.53;5064919;28;20398;-61
2022/03/28 10:20:29;;;;;;;44.97;26.63;;;;;;;17.32;47.09;102184.31;5111843;28;20027;-61
2022/03/28 10:22:56;;;;;;;37.65;26.33;;;;;;;17.31;45.56;102181.75;5086091;28;20032;-62
2022/03/28 10:25:24;;;;;;;52.90;27.83;;;;;;;17.39;45.64;102174.88;5105641;28;20144;-61
2022/03/28 10:27:52;;;;;;;45.30;26.63;;;;;;;17.49;45.32;102170.53;5110800;28;20054;-61
2022/03/28 10:30:32;;;;;;;40.55;27.33;;;;;;;17.63;45.87;102168.69;5104312;28;20050;-61
2022/03/28 10:33:21;;;;;;;38.90;25.67;;;;;;;17.88;45.29;102157.94;5104589;28;20038;-61
2022/03/28 10:36:07;;;;;;;38.47;25.33;;;;;;;18.15;45.02;102156.88;5104450;28;20398;-61
2022/03/28 10:38:33;;;;;;;41.97;26.35;;;;;;;18.32;43.72;102139.41;5102299;28;20027;-61
2022/03/28 10:40:59;;;;;;;40.45;26.80;;;;;;;18.16;43.71;102147.81;5103399;28;20085;-61
2022/03/28 10:43:30;;;;;;;41.10;25.35;;;;;;;18.24;42.97;102139.16;5099927;28;20111;-61
2022/03/28 10:45:56;;;;;;;45.28;26.00;;;;;;;18.28;42.93;102129.88;5105649;28;20051;-61
2022/03/28 10:48:41;;;;;;;40.47;24.02;;;;;;;18.60;43.54;102122.03;5095624;28;20062;-61
2022/03/28 10:51:18;;;;;;;34.60;23.67;;;;;;;18.82;42.54;102123.94;5111032;28;21184;-61
2022/03/28 10:53:51;;;;;;;39.38;25.15;;;;;;;18.93;42.59;102128.50;5109440;28;20019;-61
2022/03/28 10:56:24;;;;;;;38.08;24.38;;;;;;;19.26;43.21;102127.69;5100851;28;20027;-61
2022/03/28 10:58:53;;;;;;;39.45;24.02;;;;;;;19.54;40.92;102126.34;5093312;28;20031;-61
2022/03/28 11:01:31;;;;;;;39.30;25.33;;;;;;;19.76;40.84;102125.47;5079510;28;20028;-61
2022/03/28 11:04:03;;;;;;;38.65;25.10;;;;;;;19.76;40.00;102122.78;5107015;28;20016;-61
2022/03/28 11:06:59;;;;;;;36.88;25.52;;;;;;;19.73;38.87;102123.88;5099999;28;20038;-61
2022/03/28 11:09:47;;;;;;;33.38;22.50;;;;;;;19.84;39.71;102124.88;5100066;28;20099;-61
2022/03/28 11:12:38;;;;;;;36.83;24.77;;;;;;;20.12;38.00;102118.06;5108013;28;20470;-61
2022/03/28 11:15:21;;;;;;;35.42;24.13;;;;;;;20.47;38.61;102114.19;5084695;28;20032;-61
2022/03/28 11:17:58;;;;;;;36.47;24.90;;;;;;;20.35;37.35;102111.56;5102612;28;20023;-61
2022/03/28 11:20:28;;;;;;;36.80;24.73;;;;;;;20.80;35.99;102111.34;5072768;28;20486;-62